sensor_id;sensor_type;location;lat;lon;timestamp;P1;durP1;ratioP1;P2;durP2;ratioP2
19569;SDS011;9931;51.458;7.256;2022-09-12T00:00:21;34.63;;;12.57;;
19569;SDS011;9931;51.458;7.256;2022-09-12T00:02:50;36.40;;;12.93;;
19569;SDS011;9931;51.458;7.256;2022-09-12T00:05:15;45.72;;;13.82;;
19569;SDS011;9931;51.458;7.256;2022-09-12T00:07:40;36.90;;;13.48;;
19569;SDS011;9931;51.458;7.256;2022-09-12T00:10:05;27.52;;;12.57;;
19569;SDS011;9931;51.458;7.256;2022-09-12T00:12:31;31.83;;;12.50;;
19569;SDS011;9931;51.458;7.256;2022-09-12T00:14:57;34.40;;;12.73;;
19569;SDS011;9931;51.458;7.256;2022-09-12T00:17:22;38.40;;;13.80;;
19569;SDS011;9931;51.458;7.256;2022-09-12T00:19:48;39.42;;;13.25;;
19569;SDS011;9931;51.458;7.256;2022-09-12T00:22:13;34.37;;;12.90;;
19569;SDS011;9931;51.458;7.256;2022-09-12T00:24:38;35.40;;;13.23;;
19569;SDS011;9931;51.458;7.256;2022-09-12T00:27:04;34.63;;;13.00;;
19569;SDS011;9931;51.458;7.256;2022-09-12T00:29:30;38.03;;;12.82;;
19569;SDS011;9931;51.458;7.256;2022-09-12T00:31:55;46.85;;;13.60;;
19569;SDS011;9931;51.458;7.256;2022-09-12T00:34:20;37.13;;;12.57;;
19569;SDS011;9931;51.458;7.256;2022-09-12T00:36:45;56.70;;;14.50;;
19569;SDS011;9931;51.458;7.256;2022-09-12T00:39:13;37.63;;;12.52;;
19569;SDS011;9931;51.458;7.256;2022-09-12T00:41:38;36.58;;;12.55;;
19569;SDS011;9931;51.458;7.256;2022-09-12T00:46:48;49.35;;;13.85;;
19569;SDS011;9931;51.458;7.256;2022-09-12T00:49:20;37.00;;;13.30;;
19569;SDS011;9931;51.458;7.256;2022-09-12T00:51:51;37.17;;;13.63;;
19569;SDS011;9931;51.458;7.256;2022-09-12T00:54:19;34.63;;;13.23;;
19569;SDS011;9931;51.458;7.256;2022-09-12T00:56:45;56.17;;;14.77;;
19569;SDS011;9931;51.458;7.256;2022-09-12T00:59:14;36.42;;;12.68;;
19569;SDS011;9931;51.458;7.256;2022-09-12T01:01:41;32.80;;;12.60;;
19569;SDS011;9931;51.458;7.256;2022-09-12T01:04:08;40.92;;;13.05;;
19569;SDS011;9931;51.458;7.256;2022-09-12T01:06:36;29.30;;;11.65;;
19569;SDS011;9931;51.458;7.256;2022-09-12T01:09:03;36.40;;;13.25;;
19569;SDS011;9931;51.458;7.256;2022-09-12T01:11:33;37.22;;;13.40;;
19569;SDS011;9931;51.458;7.256;2022-09-12T01:13:58;37.08;;;13.48;;
19569;SDS011;9931;51.458;7.256;2022-09-12T01:16:23;36.72;;;13.40;;
19569;SDS011;9931;51.458;7.256;2022-09-12T01:18:50;33.42;;;12.82;;
19569;SDS011;9931;51.458;7.256;2022-09-12T01:36:39;35.80;;;12.98;;
19569;SDS011;9931;51.458;7.256;2022-09-12T01:44:36;45.55;;;13.95;;
19569;SDS011;9931;51.458;7.256;2022-09-12T01:47:14;32.70;;;12.65;;
19569;SDS011;9931;51.458;7.256;2022-09-12T01:49:56;39.05;;;14.23;;
19569;SDS011;9931;51.458;7.256;2022-09-12T01:55:09;44.25;;;13.60;;
19569;SDS011;9931;51.458;7.256;2022-09-12T01:57:38;42.78;;;13.20;;
19569;SDS011;9931;51.458;7.256;2022-09-12T02:00:06;34.47;;;13.10;;
19569;SDS011;9931;51.458;7.256;2022-09-12T02:03:08;42.65;;;13.43;;
19569;SDS011;9931;51.458;7.256;2022-09-12T02:05:29;31.52;;;12.60;;
19569;SDS011;9931;51.458;7.256;2022-09-12T02:08:15;37.90;;;12.27;;
19569;SDS011;9931;51.458;7.256;2022-09-12T02:13:17;38.03;;;13.52;;
19569;SDS011;9931;51.458;7.256;2022-09-12T02:15:47;32.00;;;12.48;;
19569;SDS011;9931;51.458;7.256;2022-09-12T02:18:14;57.33;;;14.23;;
19569;SDS011;9931;51.458;7.256;2022-09-12T02:20:42;36.78;;;12.27;;
19569;SDS011;9931;51.458;7.256;2022-09-12T02:23:10;33.35;;;12.07;;
19569;SDS011;9931;51.458;7.256;2022-09-12T02:25:40;30.15;;;11.95;;
19569;SDS011;9931;51.458;7.256;2022-09-12T02:28:11;25.35;;;11.15;;
19569;SDS011;9931;51.458;7.256;2022-09-12T02:30:42;33.80;;;11.88;;
19569;SDS011;9931;51.458;7.256;2022-09-12T02:33:12;38.75;;;12.80;;
19569;SDS011;9931;51.458;7.256;2022-09-12T02:35:47;32.38;;;11.88;;
19569;SDS011;9931;51.458;7.256;2022-09-12T02:40:58;36.42;;;12.43;;
19569;SDS011;9931;51.458;7.256;2022-09-12T02:43:23;32.42;;;11.82;;
19569;SDS011;9931;51.458;7.256;2022-09-12T02:45:48;35.47;;;12.25;;
19569;SDS011;9931;51.458;7.256;2022-09-12T02:48:15;35.22;;;11.57;;
19569;SDS011;9931;51.458;7.256;2022-09-12T02:50:42;30.85;;;12.30;;
19569;SDS011;9931;51.458;7.256;2022-09-12T02:53:08;34.88;;;12.40;;
19569;SDS011;9931;51.458;7.256;2022-09-12T02:55:34;33.78;;;11.73;;
19569;SDS011;9931;51.458;7.256;2022-09-12T02:58:00;47.10;;;13.43;;
19569;SDS011;9931;51.458;7.256;2022-09-12T03:00:27;39.40;;;12.77;;
19569;SDS011;9931;51.458;7.256;2022-09-12T03:02:58;34.97;;;11.60;;
19569;SDS011;9931;51.458;7.256;2022-09-12T03:05:30;36.05;;;12.23;;
19569;SDS011;9931;51.458;7.256;2022-09-12T03:13:38;41.92;;;13.18;;
19569;SDS011;9931;51.458;7.256;2022-09-12T03:18:56;39.03;;;11.98;;
19569;SDS011;9931;51.458;7.256;2022-09-12T03:29:15;30.77;;;10.90;;
19569;SDS011;9931;51.458;7.256;2022-09-12T03:31:52;23.05;;;10.15;;
19569;SDS011;9931;51.458;7.256;2022-09-12T03:34:18;29.70;;;10.75;;
19569;SDS011;9931;51.458;7.256;2022-09-12T03:36:43;52.70;;;12.80;;
19569;SDS011;9931;51.458;7.256;2022-09-12T03:39:09;54.45;;;13.30;;
19569;SDS011;9931;51.458;7.256;2022-09-12T03:41:34;31.38;;;11.13;;
19569;SDS011;9931;51.458;7.256;2022-09-12T03:43:59;31.23;;;12.23;;
19569;SDS011;9931;51.458;7.256;2022-09-12T03:46:24;53.67;;;16.35;;
19569;SDS011;9931;51.458;7.256;2022-09-12T03:48:49;63.33;;;14.37;;
19569;SDS011;9931;51.458;7.256;2022-09-12T03:51:15;33.28;;;11.05;;
19569;SDS011;9931;51.458;7.256;2022-09-12T03:53:40;37.60;;;11.80;;
19569;SDS011;9931;51.458;7.256;2022-09-12T03:56:06;32.00;;;11.60;;
19569;SDS011;9931;51.458;7.256;2022-09-12T03:58:32;32.60;;;11.35;;
19569;SDS011;9931;51.458;7.256;2022-09-12T04:00:59;33.47;;;11.55;;
19569;SDS011;9931;51.458;7.256;2022-09-12T04:03:25;31.52;;;10.93;;
19569;SDS011;9931;51.458;7.256;2022-09-12T04:05:50;21.90;;;9.98;;
19569;SDS011;9931;51.458;7.256;2022-09-12T04:08:15;24.50;;;10.35;;
19569;SDS011;9931;51.458;7.256;2022-09-12T04:10:40;25.95;;;10.38;;
19569;SDS011;9931;51.458;7.256;2022-09-12T04:13:05;33.25;;;11.18;;
19569;SDS011;9931;51.458;7.256;2022-09-12T04:15:31;39.45;;;11.63;;
19569;SDS011;9931;51.458;7.256;2022-09-12T04:17:56;33.50;;;11.68;;
19569;SDS011;9931;51.458;7.256;2022-09-12T04:20:21;60.35;;;12.80;;
19569;SDS011;9931;51.458;7.256;2022-09-12T04:22:46;48.60;;;12.55;;
19569;SDS011;9931;51.458;7.256;2022-09-12T04:25:12;32.67;;;11.10;;
19569;SDS011;9931;51.458;7.256;2022-09-12T04:27:37;42.53;;;11.90;;
19569;SDS011;9931;51.458;7.256;2022-09-12T04:30:03;34.20;;;10.48;;
19569;SDS011;9931;51.458;7.256;2022-09-12T04:32:29;34.35;;;13.68;;
19569;SDS011;9931;51.458;7.256;2022-09-12T04:34:55;26.92;;;10.52;;
19569;SDS011;9931;51.458;7.256;2022-09-12T04:37:20;25.98;;;10.75;;
19569;SDS011;9931;51.458;7.256;2022-09-12T04:39:46;34.95;;;11.48;;
19569;SDS011;9931;51.458;7.256;2022-09-12T04:42:13;38.45;;;11.18;;
19569;SDS011;9931;51.458;7.256;2022-09-12T04:44:38;30.58;;;10.57;;
19569;SDS011;9931;51.458;7.256;2022-09-12T04:47:03;35.05;;;10.18;;
19569;SDS011;9931;51.458;7.256;2022-09-12T04:49:28;39.25;;;11.80;;
19569;SDS011;9931;51.458;7.256;2022-09-12T04:51:54;41.47;;;11.23;;
19569;SDS011;9931;51.458;7.256;2022-09-12T04:54:19;30.10;;;10.50;;
19569;SDS011;9931;51.458;7.256;2022-09-12T04:56:45;33.80;;;10.85;;
19569;SDS011;9931;51.458;7.256;2022-09-12T04:59:11;28.98;;;10.68;;
19569;SDS011;9931;51.458;7.256;2022-09-12T05:01:37;31.05;;;10.55;;
19569;SDS011;9931;51.458;7.256;2022-09-12T05:04:02;29.73;;;10.55;;
19569;SDS011;9931;51.458;7.256;2022-09-12T05:06:29;26.17;;;10.60;;
19569;SDS011;9931;51.458;7.256;2022-09-12T05:08:55;26.77;;;10.27;;
19569;SDS011;9931;51.458;7.256;2022-09-12T05:11:22;30.00;;;10.23;;
19569;SDS011;9931;51.458;7.256;2022-09-12T05:13:47;28.67;;;10.13;;
19569;SDS011;9931;51.458;7.256;2022-09-12T05:16:14;30.10;;;10.45;;
19569;SDS011;9931;51.458;7.256;2022-09-12T05:18:40;29.60;;;12.00;;
19569;SDS011;9931;51.458;7.256;2022-09-12T05:21:06;34.63;;;13.82;;
19569;SDS011;9931;51.458;7.256;2022-09-12T05:23:33;33.42;;;13.10;;
19569;SDS011;9931;51.458;7.256;2022-09-12T05:25:58;32.40;;;10.98;;
19569;SDS011;9931;51.458;7.256;2022-09-12T05:28:27;26.08;;;10.32;;
19569;SDS011;9931;51.458;7.256;2022-09-12T05:30:59;30.27;;;10.48;;
19569;SDS011;9931;51.458;7.256;2022-09-12T05:33:24;30.23;;;10.43;;
19569;SDS011;9931;51.458;7.256;2022-09-12T05:35:50;27.80;;;10.30;;
19569;SDS011;9931;51.458;7.256;2022-09-12T05:38:16;26.98;;;10.02;;
19569;SDS011;9931;51.458;7.256;2022-09-12T05:40:41;22.40;;;9.70;;
19569;SDS011;9931;51.458;7.256;2022-09-12T05:43:06;24.33;;;9.60;;
19569;SDS011;9931;51.458;7.256;2022-09-12T05:45:31;26.88;;;10.27;;
19569;SDS011;9931;51.458;7.256;2022-09-12T05:47:56;40.60;;;11.17;;
19569;SDS011;9931;51.458;7.256;2022-09-12T05:50:22;25.60;;;9.77;;
19569;SDS011;9931;51.458;7.256;2022-09-12T05:52:47;25.23;;;9.55;;
19569;SDS011;9931;51.458;7.256;2022-09-12T05:55:12;28.92;;;9.75;;
19569;SDS011;9931;51.458;7.256;2022-09-12T05:57:38;28.70;;;9.60;;
19569;SDS011;9931;51.458;7.256;2022-09-12T06:00:03;25.70;;;8.73;;
19569;SDS011;9931;51.458;7.256;2022-09-12T06:02:29;24.08;;;9.13;;
19569;SDS011;9931;51.458;7.256;2022-09-12T06:04:55;23.90;;;8.93;;
19569;SDS011;9931;51.458;7.256;2022-09-12T06:07:20;20.65;;;8.45;;
19569;SDS011;9931;51.458;7.256;2022-09-12T06:09:45;17.43;;;7.77;;
19569;SDS011;9931;51.458;7.256;2022-09-12T06:12:10;38.33;;;18.75;;
19569;SDS011;9931;51.458;7.256;2022-09-12T06:14:35;49.05;;;24.05;;
19569;SDS011;9931;51.458;7.256;2022-09-12T06:17:01;25.87;;;10.97;;
19569;SDS011;9931;51.458;7.256;2022-09-12T06:19:26;24.88;;;8.68;;
19569;SDS011;9931;51.458;7.256;2022-09-12T06:21:52;24.65;;;8.07;;
19569;SDS011;9931;51.458;7.256;2022-09-12T06:24:18;18.17;;;7.40;;
19569;SDS011;9931;51.458;7.256;2022-09-12T06:26:43;36.00;;;9.15;;
19569;SDS011;9931;51.458;7.256;2022-09-12T06:29:09;14.70;;;7.07;;
19569;SDS011;9931;51.458;7.256;2022-09-12T06:31:36;18.67;;;7.03;;
19569;SDS011;9931;51.458;7.256;2022-09-12T06:34:05;17.10;;;6.65;;
19569;SDS011;9931;51.458;7.256;2022-09-12T06:36:31;18.25;;;7.13;;
19569;SDS011;9931;51.458;7.256;2022-09-12T06:38:58;16.55;;;6.95;;
19569;SDS011;9931;51.458;7.256;2022-09-12T06:41:24;14.68;;;6.35;;
19569;SDS011;9931;51.458;7.256;2022-09-12T06:43:51;16.33;;;6.68;;
19569;SDS011;9931;51.458;7.256;2022-09-12T06:46:16;16.50;;;5.90;;
19569;SDS011;9931;51.458;7.256;2022-09-12T06:48:41;16.67;;;6.03;;
19569;SDS011;9931;51.458;7.256;2022-09-12T06:51:10;19.45;;;6.18;;
19569;SDS011;9931;51.458;7.256;2022-09-12T06:53:37;25.17;;;6.57;;
19569;SDS011;9931;51.458;7.256;2022-09-12T06:56:03;16.55;;;6.35;;
19569;SDS011;9931;51.458;7.256;2022-09-12T06:58:30;19.48;;;6.43;;
19569;SDS011;9931;51.458;7.256;2022-09-12T07:01:03;14.77;;;6.32;;
19569;SDS011;9931;51.458;7.256;2022-09-12T07:03:28;20.75;;;6.28;;
19569;SDS011;9931;51.458;7.256;2022-09-12T07:05:53;18.45;;;6.30;;
19569;SDS011;9931;51.458;7.256;2022-09-12T07:08:19;20.77;;;7.15;;
19569;SDS011;9931;51.458;7.256;2022-09-12T07:10:44;18.33;;;6.60;;
19569;SDS011;9931;51.458;7.256;2022-09-12T07:13:09;12.23;;;5.40;;
19569;SDS011;9931;51.458;7.256;2022-09-12T07:15:35;14.43;;;5.93;;
19569;SDS011;9931;51.458;7.256;2022-09-12T07:18:00;17.80;;;6.43;;
19569;SDS011;9931;51.458;7.256;2022-09-12T07:20:26;26.15;;;6.97;;
19569;SDS011;9931;51.458;7.256;2022-09-12T07:22:51;20.77;;;6.38;;
19569;SDS011;9931;51.458;7.256;2022-09-12T07:25:16;21.33;;;6.50;;
19569;SDS011;9931;51.458;7.256;2022-09-12T07:27:41;11.02;;;5.38;;
19569;SDS011;9931;51.458;7.256;2022-09-12T07:30:07;12.18;;;5.78;;
19569;SDS011;9931;51.458;7.256;2022-09-12T07:32:32;26.85;;;7.18;;
19569;SDS011;9931;51.458;7.256;2022-09-12T07:34:58;18.20;;;6.35;;
19569;SDS011;9931;51.458;7.256;2022-09-12T07:37:23;19.90;;;6.43;;
19569;SDS011;9931;51.458;7.256;2022-09-12T07:39:49;19.40;;;6.10;;
19569;SDS011;9931;51.458;7.256;2022-09-12T07:42:14;15.63;;;6.10;;
19569;SDS011;9931;51.458;7.256;2022-09-12T07:44:39;19.27;;;6.07;;
19569;SDS011;9931;51.458;7.256;2022-09-12T07:47:04;16.48;;;6.13;;
19569;SDS011;9931;51.458;7.256;2022-09-12T07:49:30;21.88;;;6.60;;
19569;SDS011;9931;51.458;7.256;2022-09-12T07:51:55;22.05;;;6.70;;
19569;SDS011;9931;51.458;7.256;2022-09-12T07:54:20;20.67;;;6.43;;
19569;SDS011;9931;51.458;7.256;2022-09-12T07:56:45;33.15;;;7.60;;
19569;SDS011;9931;51.458;7.256;2022-09-12T07:59:11;17.42;;;6.57;;
19569;SDS011;9931;51.458;7.256;2022-09-12T08:01:36;16.70;;;5.82;;
19569;SDS011;9931;51.458;7.256;2022-09-12T08:04:01;29.38;;;6.82;;
19569;SDS011;9931;51.458;7.256;2022-09-12T08:06:28;21.58;;;6.88;;
19569;SDS011;9931;51.458;7.256;2022-09-12T08:08:58;16.35;;;6.05;;
19569;SDS011;9931;51.458;7.256;2022-09-12T08:11:24;19.98;;;6.35;;
19569;SDS011;9931;51.458;7.256;2022-09-12T08:13:49;30.40;;;7.78;;
19569;SDS011;9931;51.458;7.256;2022-09-12T08:16:19;19.35;;;6.97;;
19569;SDS011;9931;51.458;7.256;2022-09-12T08:18:46;27.83;;;7.85;;
19569;SDS011;9931;51.458;7.256;2022-09-12T08:21:13;17.50;;;6.38;;
19569;SDS011;9931;51.458;7.256;2022-09-12T08:23:38;18.67;;;6.40;;
19569;SDS011;9931;51.458;7.256;2022-09-12T08:26:04;21.23;;;6.97;;
19569;SDS011;9931;51.458;7.256;2022-09-12T08:28:30;15.40;;;6.18;;
19569;SDS011;9931;51.458;7.256;2022-09-12T08:31:03;18.42;;;6.03;;
19569;SDS011;9931;51.458;7.256;2022-09-12T08:33:29;18.83;;;6.80;;
19569;SDS011;9931;51.458;7.256;2022-09-12T08:36:04;31.30;;;7.43;;
19569;SDS011;9931;51.458;7.256;2022-09-12T08:38:30;19.30;;;6.25;;
19569;SDS011;9931;51.458;7.256;2022-09-12T08:49:11;19.10;;;6.55;;
19569;SDS011;9931;51.458;7.256;2022-09-12T08:51:38;11.18;;;5.85;;
19569;SDS011;9931;51.458;7.256;2022-09-12T08:54:03;20.98;;;7.93;;
19569;SDS011;9931;51.458;7.256;2022-09-12T08:56:35;38.78;;;12.73;;
19569;SDS011;9931;51.458;7.256;2022-09-12T08:59:00;19.90;;;6.53;;
19569;SDS011;9931;51.458;7.256;2022-09-12T09:06:26;19.23;;;6.90;;
19569;SDS011;9931;51.458;7.256;2022-09-12T09:09:05;14.95;;;5.80;;
19569;SDS011;9931;51.458;7.256;2022-09-12T09:14:39;14.20;;;6.00;;
19569;SDS011;9931;51.458;7.256;2022-09-12T09:17:33;17.35;;;6.85;;
19569;SDS011;9931;51.458;7.256;2022-09-12T09:22:44;18.02;;;6.53;;
19569;SDS011;9931;51.458;7.256;2022-09-12T09:25:18;15.88;;;6.35;;
19569;SDS011;9931;51.458;7.256;2022-09-12T09:27:46;30.08;;;7.32;;
19569;SDS011;9931;51.458;7.256;2022-09-12T09:30:13;16.73;;;6.40;;
19569;SDS011;9931;51.458;7.256;2022-09-12T09:32:40;19.85;;;6.55;;
19569;SDS011;9931;51.458;7.256;2022-09-12T09:35:20;16.55;;;6.32;;
19569;SDS011;9931;51.458;7.256;2022-09-12T09:37:52;18.23;;;5.80;;
19569;SDS011;9931;51.458;7.256;2022-09-12T09:40:20;19.48;;;5.78;;
19569;SDS011;9931;51.458;7.256;2022-09-12T09:42:52;9.35;;;4.95;;
19569;SDS011;9931;51.458;7.256;2022-09-12T09:45:21;13.93;;;5.22;;
19569;SDS011;9931;51.458;7.256;2022-09-12T09:47:56;17.02;;;5.50;;
19569;SDS011;9931;51.458;7.256;2022-09-12T09:50:21;13.27;;;4.65;;
19569;SDS011;9931;51.458;7.256;2022-09-12T09:52:48;28.70;;;6.45;;
19569;SDS011;9931;51.458;7.256;2022-09-12T09:55:18;15.57;;;5.28;;
19569;SDS011;9931;51.458;7.256;2022-09-12T09:57:45;5.43;;;4.05;;
19569;SDS011;9931;51.458;7.256;2022-09-12T10:00:30;13.27;;;4.57;;
19569;SDS011;9931;51.458;7.256;2022-09-12T10:02:57;13.77;;;4.43;;
19569;SDS011;9931;51.458;7.256;2022-09-12T10:05:23;14.52;;;5.18;;
19569;SDS011;9931;51.458;7.256;2022-09-12T10:07:48;15.55;;;4.78;;
19569;SDS011;9931;51.458;7.256;2022-09-12T10:10:15;11.15;;;3.97;;
19569;SDS011;9931;51.458;7.256;2022-09-12T10:12:41;11.88;;;4.40;;
19569;SDS011;9931;51.458;7.256;2022-09-12T10:15:25;27.50;;;5.90;;
19569;SDS011;9931;51.458;7.256;2022-09-12T10:17:50;11.63;;;4.85;;
19569;SDS011;9931;51.458;7.256;2022-09-12T10:22:53;21.48;;;5.40;;
19569;SDS011;9931;51.458;7.256;2022-09-12T10:25:18;6.60;;;3.70;;
19569;SDS011;9931;51.458;7.256;2022-09-12T10:27:50;12.35;;;4.35;;
19569;SDS011;9931;51.458;7.256;2022-09-12T10:30:17;14.10;;;6.03;;
19569;SDS011;9931;51.458;7.256;2022-09-12T10:32:44;7.93;;;3.55;;
19569;SDS011;9931;51.458;7.256;2022-09-12T10:38:00;2.88;;;2.63;;
19569;SDS011;9931;51.458;7.256;2022-09-12T10:40:30;8.70;;;3.40;;
19569;SDS011;9931;51.458;7.256;2022-09-12T10:42:57;21.63;;;7.28;;
19569;SDS011;9931;51.458;7.256;2022-09-12T10:45:30;11.40;;;3.65;;
19569;SDS011;9931;51.458;7.256;2022-09-12T10:47:59;5.90;;;2.90;;
19569;SDS011;9931;51.458;7.256;2022-09-12T10:52:51;16.30;;;3.92;;
19569;SDS011;9931;51.458;7.256;2022-09-12T10:55:16;7.72;;;3.72;;
19569;SDS011;9931;51.458;7.256;2022-09-12T11:00:16;13.73;;;4.90;;
19569;SDS011;9931;51.458;7.256;2022-09-12T11:02:55;7.80;;;3.30;;
19569;SDS011;9931;51.458;7.256;2022-09-12T11:19:01;11.25;;;3.75;;
19569;SDS011;9931;51.458;7.256;2022-09-12T11:24:20;11.15;;;3.65;;
19569;SDS011;9931;51.458;7.256;2022-09-12T11:27:03;31.15;;;5.30;;
19569;SDS011;9931;51.458;7.256;2022-09-12T11:29:49;11.05;;;3.55;;
19569;SDS011;9931;51.458;7.256;2022-09-12T11:35:05;11.27;;;3.50;;
19569;SDS011;9931;51.458;7.256;2022-09-12T11:42:44;9.93;;;3.20;;
19569;SDS011;9931;51.458;7.256;2022-09-12T11:45:17;7.60;;;2.92;;
19569;SDS011;9931;51.458;7.256;2022-09-12T11:47:45;27.20;;;4.82;;
19569;SDS011;9931;51.458;7.256;2022-09-12T11:50:26;11.20;;;3.50;;
19569;SDS011;9931;51.458;7.256;2022-09-12T11:52:53;11.77;;;3.50;;
19569;SDS011;9931;51.458;7.256;2022-09-12T11:55:21;12.85;;;3.97;;
19569;SDS011;9931;51.458;7.256;2022-09-12T12:05:30;18.52;;;4.35;;
19569;SDS011;9931;51.458;7.256;2022-09-12T12:07:59;18.30;;;4.35;;
19569;SDS011;9931;51.458;7.256;2022-09-12T12:10:35;16.05;;;4.07;;
19569;SDS011;9931;51.458;7.256;2022-09-12T12:13:02;23.48;;;4.97;;
19569;SDS011;9931;51.458;7.256;2022-09-12T12:15:28;20.02;;;4.45;;
19569;SDS011;9931;51.458;7.256;2022-09-12T12:18:01;22.67;;;4.75;;
19569;SDS011;9931;51.458;7.256;2022-09-12T12:20:27;17.35;;;4.30;;
19569;SDS011;9931;51.458;7.256;2022-09-12T12:22:52;19.80;;;4.35;;
19569;SDS011;9931;51.458;7.256;2022-09-12T12:27:56;28.35;;;5.28;;
19569;SDS011;9931;51.458;7.256;2022-09-12T12:33:50;16.20;;;3.90;;
19569;SDS011;9931;51.458;7.256;2022-09-12T12:38:35;15.48;;;3.40;;
19569;SDS011;9931;51.458;7.256;2022-09-12T12:43:51;21.17;;;4.45;;
19569;SDS011;9931;51.458;7.256;2022-09-12T12:46:20;12.52;;;3.67;;
19569;SDS011;9931;51.458;7.256;2022-09-12T12:51:28;17.17;;;4.20;;
19569;SDS011;9931;51.458;7.256;2022-09-12T12:53:54;28.58;;;5.15;;
19569;SDS011;9931;51.458;7.256;2022-09-12T12:58:58;22.40;;;4.43;;
19569;SDS011;9931;51.458;7.256;2022-09-12T13:01:24;16.95;;;4.28;;
19569;SDS011;9931;51.458;7.256;2022-09-12T13:04:00;16.90;;;3.95;;
19569;SDS011;9931;51.458;7.256;2022-09-12T13:06:34;21.23;;;4.78;;
19569;SDS011;9931;51.458;7.256;2022-09-12T13:09:07;29.48;;;5.43;;
19569;SDS011;9931;51.458;7.256;2022-09-12T13:11:37;24.40;;;4.93;;
19569;SDS011;9931;51.458;7.256;2022-09-12T13:14:03;20.08;;;4.10;;
19569;SDS011;9931;51.458;7.256;2022-09-12T13:18:54;24.17;;;4.38;;
19569;SDS011;9931;51.458;7.256;2022-09-12T13:21:20;20.55;;;4.25;;
19569;SDS011;9931;51.458;7.256;2022-09-12T13:24:12;22.55;;;4.57;;
19569;SDS011;9931;51.458;7.256;2022-09-12T13:26:41;37.58;;;6.07;;
19569;SDS011;9931;51.458;7.256;2022-09-12T13:29:11;19.77;;;4.35;;
19569;SDS011;9931;51.458;7.256;2022-09-12T13:31:37;22.38;;;4.28;;
19569;SDS011;9931;51.458;7.256;2022-09-12T13:34:03;19.60;;;4.00;;
19569;SDS011;9931;51.458;7.256;2022-09-12T13:44:17;22.02;;;8.55;;
19569;SDS011;9931;51.458;7.256;2022-09-12T13:46:43;33.80;;;5.43;;
19569;SDS011;9931;51.458;7.256;2022-09-12T13:49:20;10.75;;;3.72;;
19569;SDS011;9931;51.458;7.256;2022-09-12T13:51:50;40.20;;;6.05;;
19569;SDS011;9931;51.458;7.256;2022-09-12T13:54:17;9.38;;;3.00;;
19569;SDS011;9931;51.458;7.256;2022-09-12T13:56:46;29.92;;;4.90;;
19569;SDS011;9931;51.458;7.256;2022-09-12T13:59:12;12.98;;;3.85;;
19569;SDS011;9931;51.458;7.256;2022-09-12T14:01:38;11.60;;;3.57;;
19569;SDS011;9931;51.458;7.256;2022-09-12T14:04:17;11.07;;;3.70;;
19569;SDS011;9931;51.458;7.256;2022-09-12T14:07:08;8.18;;;4.18;;
19569;SDS011;9931;51.458;7.256;2022-09-12T14:09:39;11.63;;;3.60;;
19569;SDS011;9931;51.458;7.256;2022-09-12T14:12:18;10.40;;;3.30;;
19569;SDS011;9931;51.458;7.256;2022-09-12T14:14:49;14.90;;;4.00;;
19569;SDS011;9931;51.458;7.256;2022-09-12T14:17:22;7.35;;;3.38;;
19569;SDS011;9931;51.458;7.256;2022-09-12T14:19:48;14.07;;;3.88;;
19569;SDS011;9931;51.458;7.256;2022-09-12T14:22:13;14.07;;;3.90;;
19569;SDS011;9931;51.458;7.256;2022-09-12T14:24:42;12.80;;;3.63;;
19569;SDS011;9931;51.458;7.256;2022-09-12T14:27:19;25.15;;;4.72;;
19569;SDS011;9931;51.458;7.256;2022-09-12T14:29:47;19.45;;;4.25;;
19569;SDS011;9931;51.458;7.256;2022-09-12T14:32:21;19.77;;;4.28;;
19569;SDS011;9931;51.458;7.256;2022-09-12T14:35:12;26.10;;;4.90;;
19569;SDS011;9931;51.458;7.256;2022-09-12T14:37:47;20.48;;;4.20;;
19569;SDS011;9931;51.458;7.256;2022-09-12T14:40:17;25.33;;;4.60;;
19569;SDS011;9931;51.458;7.256;2022-09-12T14:42:42;15.93;;;3.72;;
19569;SDS011;9931;51.458;7.256;2022-09-12T14:45:13;33.75;;;5.57;;
19569;SDS011;9931;51.458;7.256;2022-09-12T14:47:40;38.28;;;5.68;;
19569;SDS011;9931;51.458;7.256;2022-09-12T14:50:16;16.15;;;3.97;;
19569;SDS011;9931;51.458;7.256;2022-09-12T14:52:42;20.33;;;3.95;;
19569;SDS011;9931;51.458;7.256;2022-09-12T14:57:39;19.35;;;4.65;;
19569;SDS011;9931;51.458;7.256;2022-09-12T15:02:37;21.85;;;5.70;;
19569;SDS011;9931;51.458;7.256;2022-09-12T15:07:32;21.10;;;4.80;;
19569;SDS011;9931;51.458;7.256;2022-09-12T15:09:58;19.58;;;4.72;;
19569;SDS011;9931;51.458;7.256;2022-09-12T15:12:24;34.30;;;19.92;;
19569;SDS011;9931;51.458;7.256;2022-09-12T15:14:49;36.70;;;5.43;;
19569;SDS011;9931;51.458;7.256;2022-09-12T15:17:15;20.83;;;4.05;;
19569;SDS011;9931;51.458;7.256;2022-09-12T15:19:40;22.10;;;4.60;;
19569;SDS011;9931;51.458;7.256;2022-09-12T15:22:05;16.25;;;3.92;;
19569;SDS011;9931;51.458;7.256;2022-09-12T15:24:31;22.30;;;4.57;;
19569;SDS011;9931;51.458;7.256;2022-09-12T15:26:56;21.50;;;4.53;;
19569;SDS011;9931;51.458;7.256;2022-09-12T15:29:21;24.15;;;4.35;;
19569;SDS011;9931;51.458;7.256;2022-09-12T15:31:46;20.30;;;4.10;;
19569;SDS011;9931;51.458;7.256;2022-09-12T15:34:14;21.67;;;4.15;;
19569;SDS011;9931;51.458;7.256;2022-09-12T15:36:40;35.63;;;6.13;;
19569;SDS011;9931;51.458;7.256;2022-09-12T15:39:05;25.40;;;4.78;;
19569;SDS011;9931;51.458;7.256;2022-09-12T15:41:31;22.25;;;4.35;;
19569;SDS011;9931;51.458;7.256;2022-09-12T15:43:57;22.73;;;4.40;;
19569;SDS011;9931;51.458;7.256;2022-09-12T15:46:22;24.75;;;6.00;;
19569;SDS011;9931;51.458;7.256;2022-09-12T15:48:47;32.30;;;5.00;;
19569;SDS011;9931;51.458;7.256;2022-09-12T15:51:14;17.95;;;3.92;;
19569;SDS011;9931;51.458;7.256;2022-09-12T15:53:40;15.82;;;3.58;;
19569;SDS011;9931;51.458;7.256;2022-09-12T15:56:06;17.58;;;3.75;;
19569;SDS011;9931;51.458;7.256;2022-09-12T15:58:31;26.38;;;5.35;;
19569;SDS011;9931;51.458;7.256;2022-09-12T16:00:56;15.93;;;4.07;;
19569;SDS011;9931;51.458;7.256;2022-09-12T16:03:23;25.90;;;4.80;;
19569;SDS011;9931;51.458;7.256;2022-09-12T16:05:49;19.98;;;4.03;;
19569;SDS011;9931;51.458;7.256;2022-09-12T16:08:14;21.75;;;4.30;;
19569;SDS011;9931;51.458;7.256;2022-09-12T16:10:40;20.67;;;4.35;;
19569;SDS011;9931;51.458;7.256;2022-09-12T16:13:06;30.73;;;4.88;;
19569;SDS011;9931;51.458;7.256;2022-09-12T16:15:32;21.63;;;4.43;;
19569;SDS011;9931;51.458;7.256;2022-09-12T16:17:57;24.30;;;4.57;;
19569;SDS011;9931;51.458;7.256;2022-09-12T16:20:22;17.70;;;3.95;;
19569;SDS011;9931;51.458;7.256;2022-09-12T16:22:48;22.30;;;4.05;;
19569;SDS011;9931;51.458;7.256;2022-09-12T16:25:13;17.85;;;3.80;;
19569;SDS011;9931;51.458;7.256;2022-09-12T16:27:39;18.60;;;3.92;;
19569;SDS011;9931;51.458;7.256;2022-09-12T16:30:04;24.08;;;4.75;;
19569;SDS011;9931;51.458;7.256;2022-09-12T16:32:29;19.23;;;4.15;;
19569;SDS011;9931;51.458;7.256;2022-09-12T16:34:55;27.55;;;6.57;;
19569;SDS011;9931;51.458;7.256;2022-09-12T16:37:20;20.45;;;5.15;;
19569;SDS011;9931;51.458;7.256;2022-09-12T16:39:45;21.40;;;4.40;;
19569;SDS011;9931;51.458;7.256;2022-09-12T16:42:12;20.40;;;3.88;;
19569;SDS011;9931;51.458;7.256;2022-09-12T16:44:38;22.08;;;4.20;;
19569;SDS011;9931;51.458;7.256;2022-09-12T16:47:03;15.33;;;5.30;;
19569;SDS011;9931;51.458;7.256;2022-09-12T16:49:28;21.63;;;5.90;;
19569;SDS011;9931;51.458;7.256;2022-09-12T16:51:53;29.35;;;5.18;;
19569;SDS011;9931;51.458;7.256;2022-09-12T16:54:18;25.63;;;4.77;;
19569;SDS011;9931;51.458;7.256;2022-09-12T16:56:44;41.20;;;5.63;;
19569;SDS011;9931;51.458;7.256;2022-09-12T16:59:10;51.25;;;6.90;;
19569;SDS011;9931;51.458;7.256;2022-09-12T17:01:40;19.35;;;4.03;;
19569;SDS011;9931;51.458;7.256;2022-09-12T17:04:05;24.80;;;4.83;;
19569;SDS011;9931;51.458;7.256;2022-09-12T17:06:31;23.40;;;4.60;;
19569;SDS011;9931;51.458;7.256;2022-09-12T17:08:57;33.75;;;9.27;;